sensor_id;sensor_type;location;lat;lon;timestamp;temperature;humidity
65245;DHT22;51846;48.692;2.382;2023-08-12T00:01:38;19.96;90.10
65245;DHT22;51846;48.692;2.382;2023-08-12T00:04:04;20.04;89.88
65245;DHT22;51846;48.692;2.382;2023-08-12T00:06:29;20.11;89.60
65245;DHT22;51846;48.692;2.382;2023-08-12T00:08:55;20.21;89.06
65245;DHT22;51846;48.692;2.382;2023-08-12T00:11:20;20.04;89.57
65245;DHT22;51846;48.692;2.382;2023-08-12T00:13:45;20.21;89.20
65245;DHT22;51846;48.692;2.382;2023-08-12T00:16:11;19.99;89.64
65245;DHT22;51846;48.692;2.382;2023-08-12T00:18:36;20.09;89.54
65245;DHT22;51846;48.692;2.382;2023-08-12T00:21:08;19.98;89.70
65245;DHT22;51846;48.692;2.382;2023-08-12T00:23:39;19.85;90.39
65245;DHT22;51846;48.692;2.382;2023-08-12T00:26:06;19.96;90.20
65245;DHT22;51846;48.692;2.382;2023-08-12T00:28:32;19.98;90.09
65245;DHT22;51846;48.692;2.382;2023-08-12T00:30:58;19.95;90.22
65245;DHT22;51846;48.692;2.382;2023-08-12T00:33:23;19.82;90.57
65245;DHT22;51846;48.692;2.382;2023-08-12T00:35:48;19.72;90.57
65245;DHT22;51846;48.692;2.382;2023-08-12T00:38:14;19.71;91.11
65245;DHT22;51846;48.692;2.382;2023-08-12T00:40:39;19.72;91.34
65245;DHT22;51846;48.692;2.382;2023-08-12T00:43:04;19.75;91.06
65245;DHT22;51846;48.692;2.382;2023-08-12T00:45:30;19.82;90.81
65245;DHT22;51846;48.692;2.382;2023-08-12T00:47:55;19.92;90.46
65245;DHT22;51846;48.692;2.382;2023-08-12T00:50:21;19.98;90.55
65245;DHT22;51846;48.692;2.382;2023-08-12T00:52:47;19.99;90.04
65245;DHT22;51846;48.692;2.382;2023-08-12T00:55:13;19.91;90.50
65245;DHT22;51846;48.692;2.382;2023-08-12T00:57:38;19.98;90.55
65245;DHT22;51846;48.692;2.382;2023-08-12T01:00:04;19.88;90.68
65245;DHT22;51846;48.692;2.382;2023-08-12T01:02:30;19.99;90.40
65245;DHT22;51846;48.692;2.382;2023-08-12T01:04:55;20.11;89.84
65245;DHT22;51846;48.692;2.382;2023-08-12T01:07:20;20.28;89.28
65245;DHT22;51846;48.692;2.382;2023-08-12T01:09:46;20.33;88.72
65245;DHT22;51846;48.692;2.382;2023-08-12T01:12:36;20.30;89.00
65245;DHT22;51846;48.692;2.382;2023-08-12T01:15:15;20.29;89.08
65245;DHT22;51846;48.692;2.382;2023-08-12T01:17:42;20.04;90.26
65245;DHT22;51846;48.692;2.382;2023-08-12T01:20:08;19.96;91.10
65245;DHT22;51846;48.692;2.382;2023-08-12T01:22:37;19.81;91.58
65245;DHT22;51846;48.692;2.382;2023-08-12T01:25:05;19.69;92.09
65245;DHT22;51846;48.692;2.382;2023-08-12T01:27:37;19.69;92.59
65245;DHT22;51846;48.692;2.382;2023-08-12T01:30:03;19.71;92.48
65245;DHT22;51846;48.692;2.382;2023-08-12T01:32:45;19.78;92.33
65245;DHT22;51846;48.692;2.382;2023-08-12T01:35:19;19.75;92.42
65245;DHT22;51846;48.692;2.382;2023-08-12T01:37:48;19.62;92.74
65245;DHT22;51846;48.692;2.382;2023-08-12T01:40:15;19.54;93.02
65245;DHT22;51846;48.692;2.382;2023-08-12T01:42:42;19.61;93.12
65245;DHT22;51846;48.692;2.382;2023-08-12T01:45:07;19.74;92.78
65245;DHT22;51846;48.692;2.382;2023-08-12T01:47:33;19.85;92.47
65245;DHT22;51846;48.692;2.382;2023-08-12T01:49:58;19.98;92.05
65245;DHT22;51846;48.692;2.382;2023-08-12T01:52:24;20.05;91.73
65245;DHT22;51846;48.692;2.382;2023-08-12T01:54:49;20.08;91.54
65245;DHT22;51846;48.692;2.382;2023-08-12T01:57:15;20.05;91.57
65245;DHT22;51846;48.692;2.382;2023-08-12T01:59:40;19.93;91.71
65245;DHT22;51846;48.692;2.382;2023-08-12T02:02:06;19.82;92.23
65245;DHT22;51846;48.692;2.382;2023-08-12T02:04:32;19.92;92.20
65245;DHT22;51846;48.692;2.382;2023-08-12T02:06:58;20.01;91.81
65245;DHT22;51846;48.692;2.382;2023-08-12T02:09:23;20.11;91.40
65245;DHT22;51846;48.692;2.382;2023-08-12T02:11:49;20.15;91.15
65245;DHT22;51846;48.692;2.382;2023-08-12T02:14:15;20.11;91.11
65245;DHT22;51846;48.692;2.382;2023-08-12T02:16:41;20.04;91.30
65245;DHT22;51846;48.692;2.382;2023-08-12T02:19:06;20.13;90.98
65245;DHT22;51846;48.692;2.382;2023-08-12T02:21:32;20.21;90.85
65245;DHT22;51846;48.692;2.382;2023-08-12T02:23:57;20.11;90.82
65245;DHT22;51846;48.692;2.382;2023-08-12T02:26:23;20.18;90.88
65245;DHT22;51846;48.692;2.382;2023-08-12T02:28:48;20.21;90.66
65245;DHT22;51846;48.692;2.382;2023-08-12T02:31:14;20.18;90.71
65245;DHT22;51846;48.692;2.382;2023-08-12T02:33:40;20.19;90.95
65245;DHT22;51846;48.692;2.382;2023-08-12T02:36:05;20.04;91.11
65245;DHT22;51846;48.692;2.382;2023-08-12T02:38:31;20.13;91.09
65245;DHT22;51846;48.692;2.382;2023-08-12T02:40:56;20.21;90.94
65245;DHT22;51846;48.692;2.382;2023-08-12T02:43:21;20.22;90.77
65245;DHT22;51846;48.692;2.382;2023-08-12T02:45:47;20.11;91.31
65245;DHT22;51846;48.692;2.382;2023-08-12T02:48:12;20.15;91.34
65245;DHT22;51846;48.692;2.382;2023-08-12T02:50:38;20.04;91.69
65245;DHT22;51846;48.692;2.382;2023-08-12T02:53:04;19.91;91.88
65245;DHT22;51846;48.692;2.382;2023-08-12T02:55:29;19.77;92.81
65245;DHT22;51846;48.692;2.382;2023-08-12T02:57:57;19.65;93.15
65245;DHT22;51846;48.692;2.382;2023-08-12T03:00:22;19.54;93.44
65245;DHT22;51846;48.692;2.382;2023-08-12T03:02:47;19.53;93.75
65245;DHT22;51846;48.692;2.382;2023-08-12T03:05:13;19.47;93.88
65245;DHT22;51846;48.692;2.382;2023-08-12T03:07:38;19.46;94.01
65245;DHT22;51846;48.692;2.382;2023-08-12T03:10:04;19.43;94.15
65245;DHT22;51846;48.692;2.382;2023-08-12T03:12:30;19.46;94.18
65245;DHT22;51846;48.692;2.382;2023-08-12T03:14:55;19.46;94.13
65245;DHT22;51846;48.692;2.382;2023-08-12T03:17:20;19.46;94.18
65245;DHT22;51846;48.692;2.382;2023-08-12T03:19:46;19.47;94.28
65245;DHT22;51846;48.692;2.382;2023-08-12T03:22:11;19.41;94.41
65245;DHT22;51846;48.692;2.382;2023-08-12T03:24:36;19.43;94.47
65245;DHT22;51846;48.692;2.382;2023-08-12T03:27:02;19.41;94.58
65245;DHT22;51846;48.692;2.382;2023-08-12T03:29:27;19.39;94.54
65245;DHT22;51846;48.692;2.382;2023-08-12T03:31:52;19.47;94.56
65245;DHT22;51846;48.692;2.382;2023-08-12T03:34:18;19.54;94.43
65245;DHT22;51846;48.692;2.382;2023-08-12T03:36:43;19.57;94.30
65245;DHT22;51846;48.692;2.382;2023-08-12T03:39:11;19.72;94.01
65245;DHT22;51846;48.692;2.382;2023-08-12T03:41:36;19.78;93.56
65245;DHT22;51846;48.692;2.382;2023-08-12T03:44:01;19.72;93.40
65245;DHT22;51846;48.692;2.382;2023-08-12T03:46:27;19.85;93.17
65245;DHT22;51846;48.692;2.382;2023-08-12T03:48:52;19.89;92.96
65245;DHT22;51846;48.692;2.382;2023-08-12T03:51:18;19.93;92.66
65245;DHT22;51846;48.692;2.382;2023-08-12T03:53:43;19.89;92.58
65245;DHT22;51846;48.692;2.382;2023-08-12T03:56:08;19.96;92.51
65245;DHT22;51846;48.692;2.382;2023-08-12T03:58:34;19.93;92.21
65245;DHT22;51846;48.692;2.382;2023-08-12T04:00:59;19.95;92.20
65245;DHT22;51846;48.692;2.382;2023-08-12T04:03:24;19.98;92.32
65245;DHT22;51846;48.692;2.382;2023-08-12T04:05:51;19.91;92.38
65245;DHT22;51846;48.692;2.382;2023-08-12T04:08:19;20.01;92.33
65245;DHT22;51846;48.692;2.382;2023-08-12T04:10:47;20.09;92.00
65245;DHT22;51846;48.692;2.382;2023-08-12T04:13:13;20.11;91.72
65245;DHT22;51846;48.692;2.382;2023-08-12T04:15:39;20.16;91.54
65245;DHT22;51846;48.692;2.382;2023-08-12T04:18:04;20.09;91.74
65245;DHT22;51846;48.692;2.382;2023-08-12T04:20:30;19.99;92.14
65245;DHT22;51846;48.692;2.382;2023-08-12T04:22:55;19.77;92.78
65245;DHT22;51846;48.692;2.382;2023-08-12T04:25:21;19.75;93.19
65245;DHT22;51846;48.692;2.382;2023-08-12T04:27:47;19.71;93.49
65245;DHT22;51846;48.692;2.382;2023-08-12T04:30:13;19.85;93.38
65245;DHT22;51846;48.692;2.382;2023-08-12T04:32:39;19.81;93.04
65245;DHT22;51846;48.692;2.382;2023-08-12T04:35:05;19.96;92.67
65245;DHT22;51846;48.692;2.382;2023-08-12T04:37:30;20.06;92.41
65245;DHT22;51846;48.692;2.382;2023-08-12T04:39:57;19.99;92.02
65245;DHT22;51846;48.692;2.382;2023-08-12T04:42:23;20.04;91.97
65245;DHT22;51846;48.692;2.382;2023-08-12T04:44:48;20.11;91.79
65245;DHT22;51846;48.692;2.382;2023-08-12T04:47:14;19.96;91.96
65245;DHT22;51846;48.692;2.382;2023-08-12T04:49:39;19.96;92.30
65245;DHT22;51846;48.692;2.382;2023-08-12T04:52:11;19.82;92.65
65245;DHT22;51846;48.692;2.382;2023-08-12T04:54:38;19.78;92.91
65245;DHT22;51846;48.692;2.382;2023-08-12T04:57:04;19.86;92.88
65245;DHT22;51846;48.692;2.382;2023-08-12T04:59:30;19.99;92.37
65245;DHT22;51846;48.692;2.382;2023-08-12T05:01:56;20.04;92.11
65245;DHT22;51846;48.692;2.382;2023-08-12T05:04:21;20.11;91.99
65245;DHT22;51846;48.692;2.382;2023-08-12T05:06:53;20.04;92.11
65245;DHT22;51846;48.692;2.382;2023-08-12T05:09:18;20.05;92.21
65245;DHT22;51846;48.692;2.382;2023-08-12T05:11:44;20.09;91.96
65245;DHT22;51846;48.692;2.382;2023-08-12T05:14:09;20.06;92.03
65245;DHT22;51846;48.692;2.382;2023-08-12T05:16:35;19.98;92.06
65245;DHT22;51846;48.692;2.382;2023-08-12T05:19:00;20.09;92.03
65245;DHT22;51846;48.692;2.382;2023-08-12T05:21:25;19.98;92.09
65245;DHT22;51846;48.692;2.382;2023-08-12T05:23:51;19.89;92.15
65245;DHT22;51846;48.692;2.382;2023-08-12T05:26:17;19.95;92.35
65245;DHT22;51846;48.692;2.382;2023-08-12T05:28:42;20.05;92.04
65245;DHT22;51846;48.692;2.382;2023-08-12T05:31:08;20.16;91.96
65245;DHT22;51846;48.692;2.382;2023-08-12T05:33:33;20.19;91.72
65245;DHT22;51846;48.692;2.382;2023-08-12T05:35:58;20.12;91.75
65245;DHT22;51846;48.692;2.382;2023-08-12T05:38:24;20.22;91.63
65245;DHT22;51846;48.692;2.382;2023-08-12T05:40:49;20.15;91.85
65245;DHT22;51846;48.692;2.382;2023-08-12T05:43:14;20.13;92.04
65245;DHT22;51846;48.692;2.382;2023-08-12T05:45:40;20.08;92.25
65245;DHT22;51846;48.692;2.382;2023-08-12T05:48:05;20.09;92.24
65245;DHT22;51846;48.692;2.382;2023-08-12T05:50:31;20.11;92.22
65245;DHT22;51846;48.692;2.382;2023-08-12T05:52:56;20.15;92.19
65245;DHT22;51846;48.692;2.382;2023-08-12T05:55:22;20.09;92.12
65245;DHT22;51846;48.692;2.382;2023-08-12T05:57:47;20.05;92.24
65245;DHT22;51846;48.692;2.382;2023-08-12T06:00:12;20.09;92.26
65245;DHT22;51846;48.692;2.382;2023-08-12T06:02:38;20.11;92.29
65245;DHT22;51846;48.692;2.382;2023-08-12T06:05:04;20.11;92.34
65245;DHT22;51846;48.692;2.382;2023-08-12T06:07:29;20.23;92.01
65245;DHT22;51846;48.692;2.382;2023-08-12T06:09:55;20.23;92.07
65245;DHT22;51846;48.692;2.382;2023-08-12T06:12:20;20.29;91.77
65245;DHT22;51846;48.692;2.382;2023-08-12T06:14:45;20.33;91.64
65245;DHT22;51846;48.692;2.382;2023-08-12T06:17:13;20.32;91.47
65245;DHT22;51846;48.692;2.382;2023-08-12T06:19:39;20.30;91.68
65245;DHT22;51846;48.692;2.382;2023-08-12T06:22:04;20.34;91.53
65245;DHT22;51846;48.692;2.382;2023-08-12T06:24:29;20.39;91.48
65245;DHT22;51846;48.692;2.382;2023-08-12T06:26:55;20.34;91.61
65245;DHT22;51846;48.692;2.382;2023-08-12T06:29:20;20.29;91.48
65245;DHT22;51846;48.692;2.382;2023-08-12T06:31:45;20.29;91.44
65245;DHT22;51846;48.692;2.382;2023-08-12T06:34:11;20.37;91.40
65245;DHT22;51846;48.692;2.382;2023-08-12T06:36:36;20.43;91.29
65245;DHT22;51846;48.692;2.382;2023-08-12T06:39:02;20.42;91.25
65245;DHT22;51846;48.692;2.382;2023-08-12T06:41:28;20.43;91.22
65245;DHT22;51846;48.692;2.382;2023-08-12T06:43:54;20.46;91.16
65245;DHT22;51846;48.692;2.382;2023-08-12T06:46:19;20.43;91.16
65245;DHT22;51846;48.692;2.382;2023-08-12T06:48:44;20.46;90.98
65245;DHT22;51846;48.692;2.382;2023-08-12T06:51:10;20.46;91.04
65245;DHT22;51846;48.692;2.382;2023-08-12T06:53:36;20.40;91.31
65245;DHT22;51846;48.692;2.382;2023-08-12T06:56:02;20.44;91.26
65245;DHT22;51846;48.692;2.382;2023-08-12T06:58:28;20.50;91.14
65245;DHT22;51846;48.692;2.382;2023-08-12T07:00:53;20.37;91.33
65245;DHT22;51846;48.692;2.382;2023-08-12T07:03:19;20.49;91.31
65245;DHT22;51846;48.692;2.382;2023-08-12T07:05:46;20.49;91.39
65245;DHT22;51846;48.692;2.382;2023-08-12T07:08:12;20.54;91.18
65245;DHT22;51846;48.692;2.382;2023-08-12T07:10:38;20.62;91.06
65245;DHT22;51846;48.692;2.382;2023-08-12T07:13:04;20.53;91.02
65245;DHT22;51846;48.692;2.382;2023-08-12T07:15:29;20.57;90.86
65245;DHT22;51846;48.692;2.382;2023-08-12T07:17:55;20.60;90.85
65245;DHT22;51846;48.692;2.382;2023-08-12T07:20:20;20.50;91.10
65245;DHT22;51846;48.692;2.382;2023-08-12T07:22:46;20.39;91.53
65245;DHT22;51846;48.692;2.382;2023-08-12T07:25:11;20.56;91.31
65245;DHT22;51846;48.692;2.382;2023-08-12T07:27:36;20.64;90.96
65245;DHT22;51846;48.692;2.382;2023-08-12T07:30:02;20.64;90.92
65245;DHT22;51846;48.692;2.382;2023-08-12T07:32:28;20.64;90.93
65245;DHT22;51846;48.692;2.382;2023-08-12T07:34:53;20.50;90.98
65245;DHT22;51846;48.692;2.382;2023-08-12T07:37:19;20.63;90.91
65245;DHT22;51846;48.692;2.382;2023-08-12T07:39:44;20.56;91.28
65245;DHT22;51846;48.692;2.382;2023-08-12T07:42:09;20.63;91.42
65245;DHT22;51846;48.692;2.382;2023-08-12T07:44:35;20.66;91.07
65245;DHT22;51846;48.692;2.382;2023-08-12T07:47:00;20.70;90.86
65245;DHT22;51846;48.692;2.382;2023-08-12T07:49:25;20.73;90.95
65245;DHT22;51846;48.692;2.382;2023-08-12T07:51:51;20.79;90.75
65245;DHT22;51846;48.692;2.382;2023-08-12T07:54:16;20.80;90.92
65245;DHT22;51846;48.692;2.382;2023-08-12T07:56:41;20.83;90.94
65245;DHT22;51846;48.692;2.382;2023-08-12T07:59:07;20.84;90.46
65245;DHT22;51846;48.692;2.382;2023-08-12T08:01:32;20.83;90.29
65245;DHT22;51846;48.692;2.382;2023-08-12T08:03:57;20.86;90.33
65245;DHT22;51846;48.692;2.382;2023-08-12T08:06:25;20.84;90.44
65245;DHT22;51846;48.692;2.382;2023-08-12T08:08:51;20.87;90.47
65245;DHT22;51846;48.692;2.382;2023-08-12T08:11:16;20.88;90.12
65245;DHT22;51846;48.692;2.382;2023-08-12T08:13:41;20.83;90.50
65245;DHT22;51846;48.692;2.382;2023-08-12T08:16:07;20.88;90.49
65245;DHT22;51846;48.692;2.382;2023-08-12T08:18:32;20.94;90.48
65245;DHT22;51846;48.692;2.382;2023-08-12T08:20:57;20.97;90.63
65245;DHT22;51846;48.692;2.382;2023-08-12T08:23:23;21.01;90.90
65245;DHT22;51846;48.692;2.382;2023-08-12T08:25:48;21.06;91.13
65245;DHT22;51846;48.692;2.382;2023-08-12T08:28:14;21.07;90.66
65245;DHT22;51846;48.692;2.382;2023-08-12T08:30:39;21.03;90.31
65245;DHT22;51846;48.692;2.382;2023-08-12T08:33:05;20.79;87.68
65245;DHT22;51846;48.692;2.382;2023-08-12T08:35:30;20.60;86.87
65245;DHT22;51846;48.692;2.382;2023-08-12T08:37:55;20.44;87.44
65245;DHT22;51846;48.692;2.382;2023-08-12T08:40:21;20.26;87.57
65245;DHT22;51846;48.692;2.382;2023-08-12T08:42:51;20.11;87.90
65245;DHT22;51846;48.692;2.382;2023-08-12T08:45:17;19.98;88.26
65245;DHT22;51846;48.692;2.382;2023-08-12T08:47:43;19.93;88.74
65245;DHT22;51846;48.692;2.382;2023-08-12T08:50:10;19.88;89.01
65245;DHT22;51846;48.692;2.382;2023-08-12T08:52:36;19.86;89.36
65245;DHT22;51846;48.692;2.382;2023-08-12T08:55:03;19.83;89.54
65245;DHT22;51846;48.692;2.382;2023-08-12T08:57:29;19.83;89.28
65245;DHT22;51846;48.692;2.382;2023-08-12T08:59:55;19.83;89.61
65245;DHT22;51846;48.692;2.382;2023-08-12T09:02:20;19.88;90.03
65245;DHT22;51846;48.692;2.382;2023-08-12T09:04:47;19.95;89.69
65245;DHT22;51846;48.692;2.382;2023-08-12T09:07:13;19.98;90.25
65245;DHT22;51846;48.692;2.382;2023-08-12T09:09:45;20.05;90.00
65245;DHT22;51846;48.692;2.382;2023-08-12T09:12:13;20.08;89.78
65245;DHT22;51846;48.692;2.382;2023-08-12T09:14:39;20.15;90.23
65245;DHT22;51846;48.692;2.382;2023-08-12T09:17:06;20.19;89.33
65245;DHT22;51846;48.692;2.382;2023-08-12T09:19:31;20.26;89.69
65245;DHT22;51846;48.692;2.382;2023-08-12T09:21:58;20.33;88.95
65245;DHT22;51846;48.692;2.382;2023-08-12T09:24:27;20.29;88.87
65245;DHT22;51846;48.692;2.382;2023-08-12T09:26:56;20.36;88.59
65245;DHT22;51846;48.692;2.382;2023-08-12T09:29:35;20.42;89.74
65245;DHT22;51846;48.692;2.382;2023-08-12T09:32:13;20.50;89.51
65245;DHT22;51846;48.692;2.382;2023-08-12T09:34:53;20.53;88.99
65245;DHT22;51846;48.692;2.382;2023-08-12T09:37:22;20.60;88.98
65245;DHT22;51846;48.692;2.382;2023-08-12T09:39:49;20.64;88.43
65245;DHT22;51846;48.692;2.382;2023-08-12T09:42:15;20.64;87.39
65245;DHT22;51846;48.692;2.382;2023-08-12T09:44:41;20.70;87.53
65245;DHT22;51846;48.692;2.382;2023-08-12T09:47:07;20.77;87.58
65245;DHT22;51846;48.692;2.382;2023-08-12T09:49:36;20.86;87.53
65245;DHT22;51846;48.692;2.382;2023-08-12T09:52:02;20.93;87.88
65245;DHT22;51846;48.692;2.382;2023-08-12T09:54:28;21.00;87.41
65245;DHT22;51846;48.692;2.382;2023-08-12T09:56:58;21.03;86.73
65245;DHT22;51846;48.692;2.382;2023-08-12T09:59:24;21.14;87.71
65245;DHT22;51846;48.692;2.382;2023-08-12T10:01:52;21.24;87.52
65245;DHT22;51846;48.692;2.382;2023-08-12T10:04:22;21.28;88.21
65245;DHT22;51846;48.692;2.382;2023-08-12T10:06:48;21.37;87.31
65245;DHT22;51846;48.692;2.382;2023-08-12T10:09:15;21.37;86.57
65245;DHT22;51846;48.692;2.382;2023-08-12T10:11:42;21.41;86.34
65245;DHT22;51846;48.692;2.382;2023-08-12T10:14:09;21.51;87.65
65245;DHT22;51846;48.692;2.382;2023-08-12T10:16:36;21.58;87.05
65245;DHT22;51846;48.692;2.382;2023-08-12T10:19:03;21.59;85.94
65245;DHT22;51846;48.692;2.382;2023-08-12T10:21:30;21.65;85.77
65245;DHT22;51846;48.692;2.382;2023-08-12T10:23:57;21.71;85.22
65245;DHT22;51846;48.692;2.382;2023-08-12T10:26:24;21.86;85.11
65245;DHT22;51846;48.692;2.382;2023-08-12T10:28:50;21.95;84.76
65245;DHT22;51846;48.692;2.382;2023-08-12T10:31:15;21.98;83.23
65245;DHT22;51846;48.692;2.382;2023-08-12T10:33:41;22.05;82.80
65245;DHT22;51846;48.692;2.382;2023-08-12T10:36:07;22.09;81.43
65245;DHT22;51846;48.692;2.382;2023-08-12T10:38:33;22.08;80.94
65245;DHT22;51846;48.692;2.382;2023-08-12T10:41:21;22.10;82.55
65245;DHT22;51846;48.692;2.382;2023-08-12T10:43:55;22.20;81.99
65245;DHT22;51846;48.692;2.382;2023-08-12T10:46:28;22.33;83.75
65245;DHT22;51846;48.692;2.382;2023-08-12T10:51:39;22.53;82.47
65245;DHT22;51846;48.692;2.382;2023-08-12T10:54:25;22.67;81.83
65245;DHT22;51846;48.692;2.382;2023-08-12T11:02:19;23.01;77.99
65245;DHT22;51846;48.692;2.382;2023-08-12T11:04:52;23.10;79.38
65245;DHT22;51846;48.692;2.382;2023-08-12T11:07:28;23.20;77.94
65245;DHT22;51846;48.692;2.382;2023-08-12T11:09:54;23.27;76.21
65245;DHT22;51846;48.692;2.382;2023-08-12T11:15:19;23.17;77.38
65245;DHT22;51846;48.692;2.382;2023-08-12T11:17:50;23.21;78.19
65245;DHT22;51846;48.692;2.382;2023-08-12T11:20:16;23.25;76.61
65245;DHT22;51846;48.692;2.382;2023-08-12T11:22:43;23.22;75.24
65245;DHT22;51846;48.692;2.382;2023-08-12T11:25:10;23.25;75.51
65245;DHT22;51846;48.692;2.382;2023-08-12T11:27:42;23.30;75.69
65245;DHT22;51846;48.692;2.382;2023-08-12T11:30:09;23.32;76.40
65245;DHT22;51846;48.692;2.382;2023-08-12T11:32:36;23.40;76.00
65245;DHT22;51846;48.692;2.382;2023-08-12T11:35:02;23.51;76.84
65245;DHT22;51846;48.692;2.382;2023-08-12T11:37:29;23.66;76.14
65245;DHT22;51846;48.692;2.382;2023-08-12T11:39:54;23.78;74.86
65245;DHT22;51846;48.692;2.382;2023-08-12T11:42:20;23.76;75.45
65245;DHT22;51846;48.692;2.382;2023-08-12T11:44:45;23.98;73.31
65245;DHT22;51846;48.692;2.382;2023-08-12T11:47:11;24.13;72.40
65245;DHT22;51846;48.692;2.382;2023-08-12T11:49:36;24.23;71.38
65245;DHT22;51846;48.692;2.382;2023-08-12T11:52:02;24.39;70.58
65245;DHT22;51846;48.692;2.382;2023-08-12T11:54:28;24.64;67.57
65245;DHT22;51846;48.692;2.382;2023-08-12T11:56:53;24.81;66.90
65245;DHT22;51846;48.692;2.382;2023-08-12T11:59:23;24.84;69.45
65245;DHT22;51846;48.692;2.382;2023-08-12T12:01:49;24.91;68.24
65245;DHT22;51846;48.692;2.382;2023-08-12T12:04:15;24.95;65.76
65245;DHT22;51846;48.692;2.382;2023-08-12T12:06:41;24.94;66.11
65245;DHT22;51846;48.692;2.382;2023-08-12T12:09:08;24.77;67.24
65245;DHT22;51846;48.692;2.382;2023-08-12T12:11:37;24.71;67.16
65245;DHT22;51846;48.692;2.382;2023-08-12T12:14:03;24.57;66.95
65245;DHT22;51846;48.692;2.382;2023-08-12T12:16:42;24.64;66.65
65245;DHT22;51846;48.692;2.382;2023-08-12T12:19:15;24.73;64.08
65245;DHT22;51846;48.692;2.382;2023-08-12T12:21:42;24.80;65.10
65245;DHT22;51846;48.692;2.382;2023-08-12T12:24:09;24.76;64.25
65245;DHT22;51846;48.692;2.382;2023-08-12T12:26:35;24.67;66.48
65245;DHT22;51846;48.692;2.382;2023-08-12T12:29:02;24.66;66.68
65245;DHT22;51846;48.692;2.382;2023-08-12T12:31:28;24.63;67.52
65245;DHT22;51846;48.692;2.382;2023-08-12T12:33:54;24.57;66.84
65245;DHT22;51846;48.692;2.382;2023-08-12T12:36:19;24.59;66.68
65245;DHT22;51846;48.692;2.382;2023-08-12T12:38:44;24.53;65.53
65245;DHT22;51846;48.692;2.382;2023-08-12T12:41:10;24.56;63.56
65245;DHT22;51846;48.692;2.382;2023-08-12T12:43:35;24.52;63.94
65245;DHT22;51846;48.692;2.382;2023-08-12T12:46:09;24.57;63.97
65245;DHT22;51846;48.692;2.382;2023-08-12T12:48:35;24.74;54.12
65245;DHT22;51846;48.692;2.382;2023-08-12T12:51:00;24.88;52.34
65245;DHT22;51846;48.692;2.382;2023-08-12T12:53:25;24.97;53.07
65245;DHT22;51846;48.692;2.382;2023-08-12T12:55:51;25.08;52.84
65245;DHT22;51846;48.692;2.382;2023-08-12T12:58:16;25.10;50.99
65245;DHT22;51846;48.692;2.382;2023-08-12T13:00:42;25.14;51.19
65245;DHT22;51846;48.692;2.382;2023-08-12T13:03:07;25.14;51.90
65245;DHT22;51846;48.692;2.382;2023-08-12T13:05:33;25.28;52.29
65245;DHT22;51846;48.692;2.382;2023-08-12T13:07:58;25.34;53.57
65245;DHT22;51846;48.692;2.382;2023-08-12T13:10:23;25.37;52.36
65245;DHT22;51846;48.692;2.382;2023-08-12T13:12:51;25.31;51.31
65245;DHT22;51846;48.692;2.382;2023-08-12T13:15:16;25.34;52.94
65245;DHT22;51846;48.692;2.382;2023-08-12T13:17:42;25.34;53.22
65245;DHT22;51846;48.692;2.382;2023-08-12T13:20:08;25.37;55.01
65245;DHT22;51846;48.692;2.382;2023-08-12T13:22:34;25.42;53.70
65245;DHT22;51846;48.692;2.382;2023-08-12T13:25:00;25.48;53.26
65245;DHT22;51846;48.692;2.382;2023-08-12T13:27:25;25.46;53.70
65245;DHT22;51846;48.692;2.382;2023-08-12T13:29:50;25.51;52.43
65245;DHT22;51846;48.692;2.382;2023-08-12T13:32:16;25.55;53.11
65245;DHT22;51846;48.692;2.382;2023-08-12T13:34:42;25.58;52.45
65245;DHT22;51846;48.692;2.382;2023-08-12T13:37:08;25.63;52.37
65245;DHT22;51846;48.692;2.382;2023-08-12T13:39:34;25.66;52.18
65245;DHT22;51846;48.692;2.382;2023-08-12T13:41:59;25.65;51.73
65245;DHT22;51846;48.692;2.382;2023-08-12T13:44:24;25.69;51.65
65245;DHT22;51846;48.692;2.382;2023-08-12T13:46:50;25.63;51.63
65245;DHT22;51846;48.692;2.382;2023-08-12T13:49:15;25.79;50.51
65245;DHT22;51846;48.692;2.382;2023-08-12T13:51:40;25.72;50.69
65245;DHT22;51846;48.692;2.382;2023-08-12T13:54:06;25.72;49.88
65245;DHT22;51846;48.692;2.382;2023-08-12T13:56:31;25.65;51.08
65245;DHT22;51846;48.692;2.382;2023-08-12T13:58:56;25.66;50.98
65245;DHT22;51846;48.692;2.382;2023-08-12T14:01:22;25.66;51.24
65245;DHT22;51846;48.692;2.382;2023-08-12T14:03:47;25.75;50.86
65245;DHT22;51846;48.692;2.382;2023-08-12T14:06:13;25.72;51.35
65245;DHT22;51846;48.692;2.382;2023-08-12T14:08:38;25.76;51.97
65245;DHT22;51846;48.692;2.382;2023-08-12T14:11:03;25.82;50.80
65245;DHT22;51846;48.692;2.382;2023-08-12T14:13:29;25.78;51.22
65245;DHT22;51846;48.692;2.382;2023-08-12T14:15:54;25.85;50.94
65245;DHT22;51846;48.692;2.382;2023-08-12T14:18:19;25.82;50.94
65245;DHT22;51846;48.692;2.382;2023-08-12T14:20:45;25.85;50.19
65245;DHT22;51846;48.692;2.382;2023-08-12T14:23:10;25.85;50.19
65245;DHT22;51846;48.692;2.382;2023-08-12T14:25:35;25.81;50.55
65245;DHT22;51846;48.692;2.382;2023-08-12T14:28:01;25.62;51.35
65245;DHT22;51846;48.692;2.382;2023-08-12T14:30:26;25.61;52.63
65245;DHT22;51846;48.692;2.382;2023-08-12T14:32:52;25.63;52.48
65245;DHT22;51846;48.692;2.382;2023-08-12T14:35:17;25.73;52.92
65245;DHT22;51846;48.692;2.382;2023-08-12T14:37:43;25.71;50.76
65245;DHT22;51846;48.692;2.382;2023-08-12T14:40:09;25.51;52.43
65245;DHT22;51846;48.692;2.382;2023-08-12T14:42:35;25.43;52.93
65245;DHT22;51846;48.692;2.382;2023-08-12T14:45:00;25.42;53.06
65245;DHT22;51846;48.692;2.382;2023-08-12T14:47:25;25.48;51.97
65245;DHT22;51846;48.692;2.382;2023-08-12T14:49:51;25.53;52.76
65245;DHT22;51846;48.692;2.382;2023-08-12T14:52:19;25.68;52.31
65245;DHT22;51846;48.692;2.382;2023-08-12T14:54:45;25.79;51.36
65245;DHT22;51846;48.692;2.382;2023-08-12T14:57:11;25.58;51.98
65245;DHT22;51846;48.692;2.382;2023-08-12T14:59:36;25.63;52.53
65245;DHT22;51846;48.692;2.382;2023-08-12T15:02:02;25.75;52.65
65245;DHT22;51846;48.692;2.382;2023-08-12T15:04:27;25.85;51.93
65245;DHT22;51846;48.692;2.382;2023-08-12T15:06:53;25.82;52.47
65245;DHT22;51846;48.692;2.382;2023-08-12T15:09:18;25.78;50.88
65245;DHT22;51846;48.692;2.382;2023-08-12T15:11:44;25.65;51.17
65245;DHT22;51846;48.692;2.382;2023-08-12T15:14:09;25.61;51.38
65245;DHT22;51846;48.692;2.382;2023-08-12T15:16:34;25.52;51.78
65245;DHT22;51846;48.692;2.382;2023-08-12T15:19:01;25.57;52.35
65245;DHT22;51846;48.692;2.382;2023-08-12T15:21:26;25.53;53.02
65245;DHT22;51846;48.692;2.382;2023-08-12T15:23:52;25.51;51.56
65245;DHT22;51846;48.692;2.382;2023-08-12T15:26:17;25.63;50.22
65245;DHT22;51846;48.692;2.382;2023-08-12T15:28:43;25.75;50.30
65245;DHT22;51846;48.692;2.382;2023-08-12T15:31:11;25.83;50.08
65245;DHT22;51846;48.692;2.382;2023-08-12T15:33:37;25.72;50.54
65245;DHT22;51846;48.692;2.382;2023-08-12T15:36:02;25.89;50.90